createdAt,value
2019-03-13T00:02:20.920Z,99281.81
2019-03-13T00:04:50.444Z,99274.45
2019-03-13T00:07:19.956Z,99261.91
2019-03-13T00:09:49.788Z,99253.69
2019-03-13T00:12:19.381Z,99264.95
2019-03-13T00:14:48.967Z,99263.22
2019-03-13T00:17:18.499Z,99266.23
2019-03-13T00:19:48.024Z,99265.80
2019-03-13T00:22:17.604Z,99262.77
2019-03-13T00:24:47.150Z,99250.23
2019-03-13T00:27:16.672Z,99258.45
2019-03-13T00:29:46.372Z,99243.70
2019-03-13T00:32:16.262Z,99244.58
2019-03-13T00:34:45.775Z,99229.86
2019-03-13T00:37:15.292Z,99234.62
2019-03-13T00:39:44.826Z,99236.77
2019-03-13T00:42:14.365Z,99215.55
2019-03-13T00:44:43.873Z,99219.88
2019-03-13T00:47:13.417Z,99230.27
2019-03-13T00:49:42.917Z,99219.88
2019-03-13T00:52:12.495Z,99220.31
2019-03-13T00:54:42.029Z,99222.91
2019-03-13T00:57:11.546Z,99222.87
2019-03-13T00:59:41.054Z,99221.61
2019-03-13T01:02:30.103Z,99215.98
2019-03-13T01:05:03.659Z,99211.65
2019-03-13T01:07:33.163Z,99205.15
2019-03-13T01:10:02.692Z,99211.21
2019-03-13T01:12:32.295Z,99212.52
2019-03-13T01:15:02.074Z,99207.31
2019-03-13T01:17:31.596Z,99207.31
2019-03-13T01:20:01.117Z,99218.58
2019-03-13T01:22:30.624Z,99207.75
2019-03-13T01:25:00.358Z,99193.89
2019-03-13T01:27:29.868Z,99199.52
2019-03-13T01:29:59.389Z,99223.77
2019-03-13T01:32:47.016Z,99239.37
2019-03-13T01:35:20.723Z,99243.27
2019-03-13T01:37:50.304Z,99239.80
2019-03-13T01:40:19.979Z,99237.63
2019-03-13T01:42:49.484Z,99257.12
2019-03-13T01:45:19.003Z,99251.05
2019-03-13T01:47:49.037Z,99246.31
2019-03-13T01:50:18.545Z,99249.34
2019-03-13T01:52:48.064Z,99248.05
2019-03-13T01:55:17.761Z,99259.31
2019-03-13T01:57:47.530Z,99247.62
2019-03-13T02:00:18.060Z,99245.44
2019-03-13T02:02:47.727Z,99251.91
2019-03-13T02:05:17.247Z,99274.36
2019-03-13T02:07:46.773Z,99249.25
2019-03-13T02:10:16.479Z,99235.80
2019-03-13T02:12:45.985Z,99254.80
2019-03-13T02:15:19.190Z,99265.12
2019-03-13T02:17:48.766Z,99259.94
2019-03-13T02:20:18.431Z,99250.40
2019-03-13T02:22:47.929Z,99259.02
2019-03-13T02:25:18.695Z,99253.39
2019-03-13T02:27:48.214Z,99252.95
2019-03-13T02:30:20.893Z,99244.30
2019-03-13T02:32:50.670Z,99243.01
2019-03-13T02:35:20.245Z,99229.59
2019-03-13T02:37:49.751Z,99234.35
2019-03-13T02:40:19.402Z,99230.03
2019-03-13T02:42:48.908Z,99217.48
2019-03-13T02:45:18.415Z,99214.89
2019-03-13T02:47:48.134Z,99207.53
2019-03-13T02:50:19.258Z,99211.84
2019-03-13T02:52:48.770Z,99196.29
2019-03-13T02:55:18.298Z,99200.18
2019-03-13T02:57:47.849Z,99195.00
2019-03-13T03:00:38.009Z,99199.77
2019-03-13T03:03:15.116Z,99198.06
2019-03-13T03:05:44.665Z,99209.31
2019-03-13T03:08:14.180Z,99213.21
2019-03-13T03:10:43.673Z,99216.23
2019-03-13T03:13:13.233Z,99220.12
2019-03-13T03:15:42.742Z,99224.88
2019-03-13T03:18:12.463Z,99245.60
2019-03-13T03:20:41.999Z,99250.38
2019-03-13T03:23:11.494Z,99260.77
2019-03-13T03:25:41.078Z,99263.38
2019-03-13T03:28:10.830Z,99275.91
2019-03-13T03:30:40.640Z,99276.37
2019-03-13T03:33:10.127Z,99295.42
2019-03-13T03:35:39.657Z,99319.63
2019-03-13T03:38:09.179Z,99311.88
2019-03-13T03:40:38.754Z,99312.75
2019-03-13T03:43:08.285Z,99304.53
2019-03-13T03:45:37.800Z,99311.88
2019-03-13T03:48:07.373Z,99328.28
2019-03-13T03:50:37.000Z,99334.75
2019-03-13T03:53:06.504Z,99349.47
2019-03-13T03:55:36.102Z,99345.11
2019-03-13T03:58:05.625Z,99362.36
2019-03-13T04:00:35.158Z,99373.96
2019-03-13T04:03:05.534Z,99383.00
2019-03-13T04:05:35.542Z,99364.81
2019-03-13T04:08:05.109Z,99391.13
2019-03-13T04:10:34.618Z,99398.45
2019-03-13T04:13:04.160Z,99400.16
2019-03-13T04:15:33.660Z,99412.27
2019-03-13T04:18:03.170Z,99410.50
2019-03-13T04:20:32.707Z,99428.60
2019-03-13T04:23:02.214Z,99432.45
2019-03-13T04:25:32.644Z,99431.14
2019-03-13T04:28:02.353Z,99437.14
2019-03-13T04:30:31.949Z,99442.73
2019-03-13T04:33:01.456Z,99459.58
2019-03-13T04:35:31.447Z,99454.82
2019-03-13T04:38:00.970Z,99461.72
2019-03-13T04:40:30.485Z,99466.45
2019-03-13T04:43:00.035Z,99471.17
2019-03-13T04:45:29.578Z,99479.38
2019-03-13T04:47:59.084Z,99468.99
2019-03-13T04:50:28.598Z,99481.95
2019-03-13T04:52:58.124Z,99488.84
2019-03-13T04:55:27.638Z,99493.17
2019-03-13T04:57:57.184Z,99497.02
2019-03-13T05:00:26.703Z,99495.26
2019-03-13T05:02:56.226Z,99500.84
2019-03-13T05:05:47.899Z,99487.86
2019-03-13T05:08:28.164Z,99511.99
2019-03-13T05:10:57.724Z,99510.22
2019-03-13T05:13:27.238Z,99503.65
2019-03-13T05:15:56.747Z,99517.38
2019-03-13T05:18:26.531Z,99521.11
2019-03-13T05:20:56.045Z,99527.81
2019-03-13T05:23:25.553Z,99526.73
2019-03-13T05:25:55.159Z,99529.53
2019-03-13T05:28:24.765Z,99525.86
2019-03-13T05:30:54.257Z,99533.47
2019-03-13T05:33:24.224Z,99535.89
2019-03-13T05:35:53.718Z,99550.95
2019-03-13T05:38:23.228Z,99552.36
2019-03-13T05:40:52.904Z,99556.40
2019-03-13T05:43:22.410Z,99558.70
2019-03-13T05:45:52.196Z,99559.23
2019-03-13T05:48:21.759Z,99565.69
2019-03-13T05:50:51.266Z,99565.22
2019-03-13T05:53:20.782Z,99576.30
2019-03-13T05:55:50.766Z,99572.37
2019-03-13T05:58:20.284Z,99573.63
2019-03-13T06:00:49.795Z,99574.24
2019-03-13T06:03:19.489Z,99569.55
2019-03-13T06:05:49.009Z,99569.03
2019-03-13T06:08:18.816Z,99580.48
2019-03-13T06:10:48.484Z,99576.27
2019-03-13T06:13:18.004Z,99578.98
2019-03-13T06:15:47.612Z,99586.12
2019-03-13T06:18:17.581Z,99586.98
2019-03-13T06:20:47.097Z,99592.19
2019-03-13T06:23:16.616Z,99589.95
2019-03-13T06:25:46.230Z,99603.20
2019-03-13T06:28:15.755Z,99599.14
2019-03-13T06:30:45.290Z,99602.91
2019-03-13T06:33:14.820Z,99603.63
2019-03-13T06:35:44.331Z,99601.30
2019-03-13T06:38:13.874Z,99626.28
2019-03-13T06:40:43.415Z,99618.34
2019-03-13T06:43:12.912Z,99622.08
2019-03-13T06:45:42.431Z,99626.73
2019-03-13T06:48:12.244Z,99623.22
2019-03-13T06:50:41.738Z,99625.80
2019-03-13T06:53:11.259Z,99631.00
2019-03-13T06:55:41.165Z,99634.91
2019-03-13T06:58:10.663Z,99638.78
2019-03-13T07:00:53.738Z,99645.27
2019-03-13T07:03:33.904Z,99643.61
2019-03-13T07:06:06.216Z,99646.70
2019-03-13T07:08:52.917Z,99645.43
2019-03-13T07:11:26.838Z,99639.47
2019-03-13T07:14:00.667Z,99637.70
2019-03-13T07:16:32.762Z,99629.53
2019-03-13T07:19:19.139Z,99635.05
2019-03-13T07:21:54.142Z,99631.89
2019-03-13T07:24:23.419Z,99627.22
2019-03-13T07:27:06.741Z,99630.11
2019-03-13T07:29:38.459Z,99627.61
2019-03-13T07:32:15.150Z,99633.63
2019-03-13T07:34:48.763Z,99632.91
2019-03-13T07:37:26.493Z,99636.30
2019-03-13T07:40:00.421Z,99635.14
2019-03-13T07:42:29.744Z,99631.52
2019-03-13T07:45:14.339Z,99640.58
2019-03-13T07:47:48.584Z,99633.22
2019-03-13T07:50:22.669Z,99629.34
2019-03-13T07:53:12.242Z,99631.62
2019-03-13T07:55:48.903Z,99635.44
2019-03-13T07:58:22.729Z,99625.22
2019-03-13T08:00:57.069Z,99622.22
2019-03-13T08:03:34.016Z,99619.66
2019-03-13T08:06:03.308Z,99621.80
2019-03-13T08:08:34.476Z,99616.60
2019-03-13T08:11:08.296Z,99618.23
2019-03-13T08:13:48.375Z,99619.03
2019-03-13T08:16:25.147Z,99628.25
2019-03-13T08:19:00.143Z,99614.61
2019-03-13T08:21:34.221Z,99611.42
2019-03-13T08:24:09.501Z,99619.64
2019-03-13T08:26:46.146Z,99622.52
2019-03-13T08:29:29.114Z,99620.47
2019-03-13T08:32:13.235Z,99607.14
2019-03-13T08:34:47.239Z,99607.87
2019-03-13T08:37:24.115Z,99619.37
2019-03-13T08:40:01.129Z,99603.27
2019-03-13T08:42:32.987Z,99598.84
2019-03-13T08:45:20.500Z,99600.04
2019-03-13T08:48:07.825Z,99601.24
2019-03-13T08:50:39.019Z,99603.67
2019-03-13T08:53:26.016Z,99604.63
2019-03-13T08:55:59.883Z,99608.88
2019-03-13T08:58:35.463Z,99593.88
2019-03-13T09:01:15.535Z,99591.84
2019-03-13T09:03:47.811Z,99591.20
2019-03-13T09:06:21.715Z,99593.12
2019-03-13T09:09:36.078Z,99590.45
2019-03-13T09:12:14.403Z,99576.56
2019-03-13T09:14:48.509Z,99591.15
2019-03-13T09:17:38.494Z,99578.31
2019-03-13T09:20:17.570Z,99582.71
2019-03-13T09:22:51.307Z,99571.09
2019-03-13T09:25:40.716Z,99576.84
2019-03-13T09:28:11.919Z,99571.27
2019-03-13T09:30:59.169Z,99556.78
2019-03-13T09:33:33.585Z,99561.19
2019-03-13T09:36:10.635Z,99554.92
2019-03-13T09:38:53.998Z,99555.99
2019-03-13T09:41:28.260Z,99556.44
2019-03-13T09:44:00.071Z,99562.37
2019-03-13T09:46:38.262Z,99544.72
2019-03-13T09:49:09.679Z,99566.59
2019-03-13T09:51:50.022Z,99575.05
2019-03-13T09:54:28.309Z,99575.11
2019-03-13T09:57:15.963Z,99563.13
2019-03-13T09:59:49.913Z,99558.83
2019-03-13T10:02:24.014Z,99564.13
2019-03-13T10:05:04.419Z,99557.55
2019-03-13T10:07:33.755Z,99548.02
2019-03-13T10:10:05.018Z,99564.80
2019-03-13T10:12:52.209Z,99564.16
2019-03-13T10:15:29.348Z,99551.92
2019-03-13T10:18:18.948Z,99551.78
2019-03-13T10:20:50.145Z,99530.97
2019-03-13T10:23:37.252Z,99522.89
2019-03-13T10:26:06.562Z,99526.32
2019-03-13T10:28:43.815Z,99515.56
2019-03-13T10:31:27.000Z,99522.34
2019-03-13T10:33:56.334Z,99522.95
2019-03-13T10:36:28.618Z,99518.95
2019-03-13T10:39:15.761Z,99517.91
2019-03-13T10:42:00.207Z,99517.58
2019-03-13T10:44:37.619Z,99517.02
2019-03-13T10:47:07.043Z,99507.18
2019-03-13T10:49:40.914Z,99515.88
2019-03-13T10:52:10.400Z,99500.73
2019-03-13T10:54:41.611Z,99493.66
2019-03-13T10:57:10.934Z,99477.23
2019-03-13T10:59:51.316Z,99490.05
2019-03-13T11:02:34.555Z,99489.35
2019-03-13T11:05:11.909Z,99482.42
2019-03-13T11:07:59.367Z,99486.38
2019-03-13T11:10:46.640Z,99490.08
2019-03-13T11:13:29.788Z,99489.81
2019-03-13T11:16:13.210Z,99488.17
2019-03-13T11:18:53.134Z,99490.97
2019-03-13T11:21:40.230Z,99484.22
2019-03-13T11:24:27.516Z,99488.04
2019-03-13T11:26:58.729Z,99468.56
2019-03-13T11:29:30.189Z,99487.75
2019-03-13T11:32:02.415Z,99476.74
2019-03-13T11:34:36.331Z,99480.34
2019-03-13T11:37:20.766Z,99475.60
2019-03-13T11:39:52.187Z,99464.80
2019-03-13T11:42:21.527Z,99479.31
2019-03-13T11:44:52.728Z,99473.66
2019-03-13T11:47:41.768Z,99476.77
2019-03-13T11:50:11.171Z,99475.58
2019-03-13T11:52:48.527Z,99480.03
2019-03-13T11:55:20.543Z,99491.52
2019-03-13T11:57:52.423Z,99471.19
2019-03-13T12:00:27.635Z,99471.75
2019-03-13T12:03:15.205Z,99483.98
2019-03-13T12:05:46.536Z,99489.77
2019-03-13T12:08:18.529Z,99491.66
2019-03-13T12:10:49.718Z,99478.77
2019-03-13T12:13:20.939Z,99480.64
2019-03-13T12:15:52.923Z,99491.63
2019-03-13T12:18:41.938Z,99487.81
2019-03-13T12:21:19.002Z,99488.73
2019-03-13T12:24:06.927Z,99483.09
2019-03-13T12:26:39.639Z,99487.96
2019-03-13T12:29:19.899Z,99488.42
2019-03-13T12:31:51.095Z,99473.19
2019-03-13T12:34:25.205Z,99475.35
2019-03-13T12:37:02.126Z,99468.84
2019-03-13T12:39:42.288Z,99477.11
2019-03-13T12:42:19.678Z,99464.05
2019-03-13T12:45:07.441Z,99463.57
2019-03-13T12:47:39.600Z,99460.46
2019-03-13T12:50:13.358Z,99476.09
2019-03-13T12:52:50.326Z,99468.73
2019-03-13T12:55:37.345Z,99471.84
2019-03-13T12:58:06.826Z,99463.61
2019-03-13T13:00:36.141Z,99461.88
2019-03-13T13:03:07.413Z,99452.77
2019-03-13T13:05:55.029Z,99444.55
2019-03-13T13:08:33.497Z,99453.70
2019-03-13T13:11:05.722Z,99448.53
2019-03-13T13:13:52.779Z,99433.35
2019-03-13T13:16:32.801Z,99429.88
2019-03-13T13:19:02.461Z,99425.55
2019-03-13T13:21:32.027Z,99432.50
2019-03-13T13:24:01.699Z,99432.50
2019-03-13T13:26:31.258Z,99424.73
2019-03-13T13:29:00.811Z,99426.91
2019-03-13T13:31:30.396Z,99424.73
2019-03-13T13:33:59.941Z,99423.89
2019-03-13T13:36:29.546Z,99426.95
2019-03-13T13:39:00.757Z,99416.52
2019-03-13T13:41:30.305Z,99418.70
2019-03-13T13:43:59.852Z,99424.77
2019-03-13T13:46:30.262Z,99420.39
2019-03-13T13:49:02.550Z,99402.95
2019-03-13T13:51:32.908Z,99403.73
2019-03-13T13:54:02.915Z,99400.20
2019-03-13T13:56:32.547Z,99405.35
2019-03-13T13:59:02.153Z,99409.69
2019-03-13T14:01:31.711Z,99404.88
2019-03-13T14:04:01.266Z,99399.65
2019-03-13T14:06:30.816Z,99392.63
2019-03-13T14:09:02.318Z,99384.34
2019-03-13T14:11:31.876Z,99390.86
2019-03-13T14:14:06.882Z,99386.92
2019-03-13T14:16:36.578Z,99386.47
2019-03-13T14:19:06.121Z,99389.97
2019-03-13T14:21:35.666Z,99400.03
2019-03-13T14:24:05.313Z,99393.60
2019-03-13T14:26:34.856Z,99383.70
2019-03-13T14:29:04.482Z,99398.95
2019-03-13T14:31:34.070Z,99375.98
2019-03-13T14:34:03.713Z,99374.70
2019-03-13T14:36:33.336Z,99371.64
2019-03-13T14:39:03.267Z,99365.98
2019-03-13T14:41:32.818Z,99372.06
2019-03-13T14:44:02.727Z,99369.03
2019-03-13T14:46:32.306Z,99377.30
2019-03-13T14:49:01.928Z,99358.16
2019-03-13T14:51:31.482Z,99366.42
2019-03-13T14:54:01.065Z,99366.00
2019-03-13T14:56:30.697Z,99366.42
2019-03-13T14:59:00.231Z,99359.91
2019-03-13T15:01:29.814Z,99359.11
2019-03-13T15:03:59.373Z,99361.31
2019-03-13T15:06:28.910Z,99366.98
2019-03-13T15:08:58.897Z,99360.52
2019-03-13T15:11:28.433Z,99360.55
2019-03-13T15:13:57.974Z,99350.58
2019-03-13T15:16:27.586Z,99365.40
2019-03-13T15:18:57.124Z,99351.09
2019-03-13T15:21:26.662Z,99342.42
2019-03-13T15:23:56.380Z,99354.59
2019-03-13T15:26:25.932Z,99351.98
2019-03-13T15:28:55.490Z,99341.17
2019-03-13T15:31:25.129Z,99336.83
2019-03-13T15:33:54.683Z,99356.81
2019-03-13T15:36:24.438Z,99332.50
2019-03-13T15:38:54.106Z,99345.97
2019-03-13T15:41:23.712Z,99341.20
2019-03-13T15:43:53.273Z,99333.83
2019-03-13T15:46:22.867Z,99349.03
2019-03-13T15:48:52.479Z,99341.69
2019-03-13T15:51:22.098Z,99353.42
2019-03-13T15:53:51.687Z,99353.00
2019-03-13T15:56:21.226Z,99355.17
2019-03-13T15:58:50.773Z,99356.91
2019-03-13T16:01:20.642Z,99336.08
2019-03-13T16:03:50.495Z,99353.44
2019-03-13T16:06:20.917Z,99329.56
2019-03-13T16:08:50.888Z,99328.70
2019-03-13T16:11:20.493Z,99339.98
2019-03-13T16:13:50.051Z,99331.75
2019-03-13T16:16:19.746Z,99329.19
2019-03-13T16:18:49.282Z,99332.23
2019-03-13T16:21:18.898Z,99324.86
2019-03-13T16:23:48.479Z,99320.09
2019-03-13T16:26:18.281Z,99327.91
2019-03-13T16:28:47.822Z,99315.77
2019-03-13T16:31:17.455Z,99307.13
2019-03-13T16:33:47.025Z,99309.30
2019-03-13T16:36:16.567Z,99299.77
2019-03-13T16:38:46.125Z,99311.92
2019-03-13T16:41:15.675Z,99300.21
2019-03-13T16:43:45.235Z,99305.02
2019-03-13T16:46:14.971Z,99294.19
2019-03-13T16:48:44.516Z,99285.52
2019-03-13T16:51:14.068Z,99295.93
2019-03-13T16:53:44.018Z,99289.00
2019-03-13T16:56:13.551Z,99283.83
2019-03-13T16:58:43.088Z,99282.97
2019-03-13T17:01:12.985Z,99285.14
2019-03-13T17:03:42.543Z,99279.50
2019-03-13T17:06:12.104Z,99272.57
2019-03-13T17:08:41.790Z,99264.81
2019-03-13T17:11:11.306Z,99275.70
2019-03-13T17:13:40.839Z,99276.57
2019-03-13T17:16:10.470Z,99263.17
2019-03-13T17:18:40.033Z,99272.27
2019-03-13T17:21:09.790Z,99261.45
2019-03-13T17:23:39.394Z,99274.01
2019-03-13T17:26:09.017Z,99274.90
2019-03-13T17:28:38.537Z,99267.97
2019-03-13T17:31:08.191Z,99275.33
2019-03-13T17:33:37.736Z,99262.31
2019-03-13T17:36:07.357Z,99263.19
2019-03-13T17:38:36.930Z,99258.40
2019-03-13T17:41:06.547Z,99258.41
2019-03-13T17:43:39.505Z,99250.61
2019-03-13T17:46:08.076Z,99243.67
2019-03-13T17:48:37.736Z,99244.53
2019-03-13T17:51:07.505Z,99257.10
2019-03-13T17:53:37.147Z,99238.47
2019-03-13T17:56:06.834Z,99251.90
2019-03-13T17:58:36.472Z,99251.06
2019-03-13T18:01:06.111Z,99240.23
2019-03-13T18:03:35.689Z,99234.17
2019-03-13T18:06:05.294Z,99234.17
2019-03-13T18:08:35.038Z,99245.86
2019-03-13T18:11:04.664Z,99236.33
2019-03-13T18:13:34.207Z,99223.34
2019-03-13T18:16:04.358Z,99241.52
2019-03-13T18:18:33.966Z,99235.90
2019-03-13T18:21:03.630Z,99244.13
2019-03-13T18:23:33.201Z,99233.30
2019-03-13T18:26:02.753Z,99231.57
2019-03-13T18:28:32.310Z,99237.20
2019-03-13T18:31:02.287Z,99241.50
2019-03-13T18:33:31.853Z,99243.67
2019-03-13T18:36:01.546Z,99244.53
2019-03-13T18:38:31.108Z,99255.37
2019-03-13T18:41:00.683Z,99265.77
2019-03-13T18:43:30.402Z,99259.30
2019-03-13T18:45:59.981Z,99265.78
2019-03-13T18:48:29.508Z,99273.16
2019-03-13T18:50:59.166Z,99267.11
2019-03-13T18:53:28.710Z,99271.44
2019-03-13T18:55:58.333Z,99276.59
2019-03-13T18:58:27.875Z,99280.06
2019-03-13T19:00:58.403Z,99285.23
2019-03-13T19:03:27.999Z,99275.72
2019-03-13T19:05:57.546Z,99266.19
2019-03-13T19:08:27.652Z,99268.30
2019-03-13T19:10:57.338Z,99260.50
2019-03-13T19:13:26.897Z,99262.64
2019-03-13T19:15:56.604Z,99247.04
2019-03-13T19:18:26.113Z,99243.49
2019-03-13T19:20:58.447Z,99249.92
2019-03-13T19:23:27.437Z,99236.91
2019-03-13T19:25:57.078Z,99246.37
2019-03-13T19:28:26.648Z,99237.66
2019-03-13T19:30:56.412Z,99232.00
2019-03-13T19:33:26.148Z,99231.55
2019-03-13T19:35:55.754Z,99231.93
2019-03-13T19:38:25.456Z,99224.98
2019-03-13T19:40:55.332Z,99223.67
2019-03-13T19:43:24.906Z,99219.80
2019-03-13T19:45:54.845Z,99214.16
2019-03-13T19:48:24.398Z,99215.92
2019-03-13T19:50:56.506Z,99206.39
2019-03-13T19:53:25.512Z,99203.81
2019-03-13T19:55:55.156Z,99199.95
2019-03-13T19:58:24.763Z,99201.70
2019-03-13T20:00:54.439Z,99206.08
2019-03-13T20:03:24.035Z,99203.92
2019-03-13T20:05:53.722Z,99196.61
2019-03-13T20:08:23.420Z,99214.78
2019-03-13T20:10:53.013Z,99191.94
2019-03-13T20:13:22.552Z,99185.05
2019-03-13T20:15:52.418Z,99190.25
2019-03-13T20:18:22.007Z,99193.28
2019-03-13T20:20:51.719Z,99189.88
2019-03-13T20:23:21.449Z,99192.05
2019-03-13T20:25:51.202Z,99179.55
2019-03-13T20:28:20.861Z,99188.19
2019-03-13T20:30:52.223Z,99185.16
2019-03-13T20:33:21.793Z,99189.48
2019-03-13T20:35:51.423Z,99183.45
2019-03-13T20:38:21.163Z,99175.27
2019-03-13T20:40:50.833Z,99171.38
2019-03-13T20:43:20.383Z,99171.84
2019-03-13T20:45:50.033Z,99170.98
2019-03-13T20:48:20.009Z,99166.66
2019-03-13T20:50:49.640Z,99160.17
2019-03-13T20:53:19.365Z,99160.16
2019-03-13T20:55:48.934Z,99158.41
2019-03-13T20:58:18.488Z,99163.16
2019-03-13T21:00:48.266Z,99156.20
2019-03-13T21:03:17.857Z,99163.94
2019-03-13T21:05:47.498Z,99161.75
2019-03-13T21:08:17.366Z,99163.02
2019-03-13T21:10:47.006Z,99151.38
2019-03-13T21:13:16.647Z,99166.92
2019-03-13T21:15:46.421Z,99164.38
2019-03-13T21:18:15.988Z,99153.59
2019-03-13T21:20:45.604Z,99157.08
2019-03-13T21:23:15.276Z,99143.25
2019-03-13T21:25:44.864Z,99160.13
2019-03-13T21:28:14.442Z,99148.91
2019-03-13T21:30:44.015Z,99145.87
2019-03-13T21:33:13.559Z,99147.16
2019-03-13T21:35:43.187Z,99148.91
2019-03-13T21:38:13.307Z,99176.12
2019-03-13T21:40:42.889Z,99149.75
2019-03-13T21:43:12.529Z,99154.45
2019-03-13T21:45:42.114Z,99154.43
2019-03-13T21:48:11.741Z,99162.18
2019-03-13T21:50:41.287Z,99154.84
2019-03-13T21:53:10.930Z,99162.59
2019-03-13T21:55:40.567Z,99167.78
2019-03-13T21:58:10.108Z,99169.08
2019-03-13T22:00:39.782Z,99153.94
2019-03-13T22:03:09.323Z,99153.06
2019-03-13T22:05:38.873Z,99153.48
2019-03-13T22:08:08.434Z,99153.03
2019-03-13T22:10:37.991Z,99151.30
2019-03-13T22:13:07.727Z,99146.11
2019-03-13T22:15:37.441Z,99155.59
2019-03-13T22:18:06.987Z,99149.10
2019-03-13T22:20:36.528Z,99163.78
2019-03-13T22:23:06.230Z,99168.08
2019-03-13T22:25:35.845Z,99174.11
2019-03-13T22:28:05.378Z,99165.45
2019-03-13T22:30:34.950Z,99159.36
2019-03-13T22:33:04.566Z,99166.69
2019-03-13T22:35:34.101Z,99161.88
2019-03-13T22:38:03.810Z,99157.54
2019-03-13T22:40:33.357Z,99157.54
2019-03-13T22:43:02.972Z,99167.89
2019-03-13T22:45:32.542Z,99163.16
2019-03-13T22:48:02.090Z,99164.47
2019-03-13T22:50:31.728Z,99161.92
2019-03-13T22:53:01.295Z,99161.06
2019-03-13T22:55:30.836Z,99157.19
2019-03-13T22:58:01.554Z,99158.92
2019-03-13T23:00:50.787Z,99167.12
2019-03-13T23:03:22.310Z,99167.14
2019-03-13T23:05:52.031Z,99158.93
2019-03-13T23:08:21.733Z,99166.69
2019-03-13T23:10:51.524Z,99163.23
2019-03-13T23:13:21.736Z,99166.69
2019-03-13T23:15:51.477Z,99161.92
2019-03-13T23:18:21.205Z,99161.06
2019-03-13T23:20:50.733Z,99162.37
2019-03-13T23:23:20.284Z,99161.08
2019-03-13T23:25:49.826Z,99159.81
2019-03-13T23:28:19.362Z,99161.55
2019-03-13T23:30:49.127Z,99157.66
2019-03-13T23:33:18.666Z,99161.57
2019-03-13T23:35:48.209Z,99151.21
2019-03-13T23:38:17.829Z,99157.70
2019-03-13T23:40:47.451Z,99152.94
2019-03-13T23:43:16.997Z,99144.31
2019-03-13T23:45:46.684Z,99147.77
2019-03-13T23:48:16.283Z,99148.64
2019-03-13T23:50:45.869Z,99149.94
2019-03-13T23:53:15.424Z,99154.27
2019-03-13T23:55:44.977Z,99147.78
2019-03-13T23:58:14.578Z,99151.66
